• Join FlightAware (Why Join?)
  • Login
  • US Flag 
02:34PM EDT


 

Airport Tracker/Info


-or-


 

Live Flight TrackerFlight Track Log ✈ UCA3598 ✈ 09-Nov-2013 ✈ KIAD - KBGM

Flight Track Log - Related Links

Times and Time Zones

All times are in EST time to prevent confusion due to time zone crossing. See the UCA3598 flight status page for this flight to view local times or setup timezone preferences in your user account.

Time Position Orientation Groundspeed Altitude Reporting Facility
EST Latitude Longitude Course Direction KTS MPH feet Rate Location/Type
10:14PM 38.9833 -77.5167 North 175 201 2,200  Level Potomac TRACON
10:15PM 39.0167 -77.5500 322° Northwest 176 203 3,300 1,320 Climbing Potomac TRACON
10:17PM 39.1203 -77.5581 357° North 197 227 6,300 1,260 Climbing Washington Center
10:18PM 39.1747 -77.5461 10° North 190 219 7,400 1,200 Climbing Washington Center
10:19PM 39.2656 -77.3221 North  Level Estimated
10:19PM 39.2269 -77.5367 North 190 219 8,800  Level Washington Center
10:20PM 39.3292 -77.2943 North  Level Estimated
10:20PM 39.2836 -77.5250 North 195 224 9,900  Level Washington Center
10:21PM 39.3419 -77.5158 North 200 230 10,900 1,080 Climbing Washington Center
10:23PM 39.4758 -77.4903 North 216 249 13,600 1,080 Climbing New York Center
10:24PM 39.5369 -77.4797 North 216 249 14,600 1,020 Climbing New York Center
10:25PM 39.5983 -77.4614 13° North 222 255 15,700 660 Climbing New York Center
10:26PM 39.6572 -77.4536 North 227 261 16,000 120 Climbing New York Center
10:27PM 39.7386 -77.4531 360° North 253 291 16,000  Level New York Center
10:28PM 39.8078 -77.4489 North 266 306 16,000 180 Level New York Center
10:29PM 39.8883 -77.4242 13° North 277 319 16,400 540 Climbing New York Center
10:30PM 39.9531 -77.3842 25° Northeast 277 319 17,100 1,080 Climbing New York Center
10:31PM 40.0219 -77.3447 24° Northeast 256 295 18,600 900 Climbing New York Center
10:32PM 40.0825 -77.3097 24° Northeast 248 285 19,000 180 Climbing New York Center
10:33PM 40.1581 -77.2625 26° Northeast 266 306 19,000  Level New York Center
10:34PM 40.2314 -77.2175 25° Northeast 277 319 19,000  Level New York Center
10:35PM 40.3067 -77.1728 24° Northeast 292 336 19,000  Level New York Center
10:36PM 40.3800 -77.1306 24° Northeast 292 336 19,000  Level New York Center
10:37PM 40.4553 -77.0856 24° Northeast 292 336 19,000  Level New York Center
10:38PM 40.5286 -77.0406 25° Northeast 292 336 19,000  Level New York Center
10:39PM 40.6039 -76.9953 25° Northeast 292 336 19,000  Level New York Center
10:40PM 40.6772 -76.9472 26° Northeast 292 336 19,000  Level New York Center
10:41PM 40.7547 -76.9022 24° Northeast 292 336 19,000 -180 Level New York Center
10:42PM 40.8278 -76.8567 25° Northeast 292 336 18,700 -600 Descending New York Center
10:43PM 40.9033 -76.8083 26° Northeast 287 330 17,800 -840 Descending New York Center
10:44PM 40.9764 -76.7628 25° Northeast 287 330 17,100 -780 Descending New York Center
10:45PM 41.0494 -76.7169 25° Northeast 287 330 16,300 -840 Descending New York Center
10:46PM 41.1206 -76.6736 25° Northeast 287 330 15,500 -840 Descending New York Center
10:47PM 41.1936 -76.6275 25° Northeast 287 330 14,700 -840 Descending New York Center
10:48PM 41.2644 -76.5839 25° Northeast 287 330 13,900 -840 Descending New York Center
10:49PM 41.3375 -76.5378 25° Northeast 287 330 13,100 -780 Descending New York Center
10:50PM 41.4022 -76.4961 26° Northeast 287 330 12,400 -780 Descending New York Center
10:51PM 41.4731 -76.4525 25° Northeast 287 330 11,600 -900 Descending New York Center
10:52PM 41.5461 -76.4058 26° Northeast 282 325 10,600 -1,020 Descending New York Center
10:53PM 41.6147 -76.3617 26° Northeast 271 312 9,600 -840 Descending New York Center
10:54PM 41.6706 -76.3247 26° Northeast 266 306 9,000 -420 Descending New York Center
10:55PM 41.7328 -76.2856 25° Northeast 254 292 8,800 -840 Descending New York Center
10:56PM 41.8036 -76.2386 26° Northeast 249 287 7,400 -1,440 Descending New York Center
10:57PM 41.8639 -76.1989 26° Northeast 249 287 6,000 -1,500 Descending New York Center
10:58PM 41.9258 -76.1622 24° Northeast 244 281 4,500 -1,020 Descending New York Center
10:59PM 41.9794 -76.1275 26° Northeast 244 281 4,000 -300 Descending New York Center
11:00PM 42.0439 -76.0881 24° Northeast 249 287 4,000 -420 Level New York Center
11:01PM 42.1081 -76.0483 25° Northeast 249 287 3,200 -420 Descending New York Center
11:02PM 42.1650 -76.0306 13° North 228 262 3,200  Level New York Center
11:03PM 42.2097 -76.0539 339° North 190 219 3,200 -240 Level New York Center
11:04PM 42.2492 -76.0542 360° North 163 188 2,800 -480 Descending New York Center
11:05PM 42.2431 -76.0061 100° East 108 124 2,300 -300 Descending New York Center
11:06PM 42.2486 -75.9756 76° East 72 83 2,200 -120 Descending New York Center
11:08PM 42.2084 -75.9796 North  Level Estimated
11:15PM 42.2084 -75.9796 North  Level Estimated
11:16PM 42.2084 -75.9796 North  Level Estimated
11:17PM 42.2084 -75.9796 North  Level Estimated